Data for 04/16/2014

Time Sea-Level Adjusted Pressure Absolute Pressure Temperature Relative Humidity Dew Point   
(mb) (inHg) (mb) (inHg) (C) (F) (%) (C) (F)
00:05 1015 29.97 844 24.92 0.3 32.5 85 -2 28.3
00:10 1015 29.97 844 24.92 0.3 32.5 85 -2 28.4
00:15 1015 29.97 845 24.95 0.3 32.5 85 -2 28.4
00:20 1015 29.97 845 24.95 0.3 32.6 84 -2.1 28.2
00:25 1016 30 845 24.95 0.6 33.1 75 -3.3 26
00:30 1016 30 845 24.95 0.9 33.7 74 -3.2 26.2
00:35 1016 30 845 24.95 1.1 34 70 -3.7 25.4
00:40 1016 30 845 24.95 1.4 34.5 69 -3.6 25.4
00:45 1016 30 845 24.95 1.5 34.7 65 -4.3 24.3
00:50 1016 30 845 24.95 1.7 35 67 -3.9 25
00:55 1016 30 845 24.95 1.7 35 68 -3.5 25.6
01:00 1016 30 845 24.95 1.6 34.8 69 -3.6 25.5
01:05 1016 30 845 24.95 1.6 34.8 70 -3.3 26.1
01:10 1016 30 845 24.95 1.4 34.5 72 -3.1 26.4
01:15 1016 30 845 24.95 1.3 34.3 73 -3 26.6
01:20 1016 30 845 24.95 1.2 34.2 73 -3.1 26.5
01:25 1016 30 845 24.95 1.2 34.2 73 -3.2 26.3
01:30 1016 30 845 24.95 1.2 34.1 73 -3.2 26.3
01:35 1016 30 845 24.95 1.2 34.2 73 -3.1 26.3
01:40 1016 30 845 24.95 1.2 34.2 73 -3.1 26.4
01:45 1016 30 845 24.95 1.2 34.1 75 -2.9 26.8
01:50 1016 30 845 24.95 1 33.7 76 -2.9 26.8
01:55 1016 30 845 24.95 0.8 33.5 77 -2.8 26.9
02:00 1016 30 845 24.95 0.6 33.1 78 -2.8 27
02:05 1016 30 845 24.95 0.4 32.7 79 -2.9 26.9
02:10 1016 30 845 24.95 0.3 32.5 80 -2.8 26.9
02:15 1016 30 845 24.95 0.2 32.4 80 -2.9 26.8
02:20 1016 30 845 24.95 0.2 32.4 80 -2.9 26.8
02:25 1016 30 845 24.95 0.3 32.5 79 -2.9 26.7
02:30 1016 30 845 24.95 0.3 32.5 79 -2.9 26.8
02:35 1016 30 845 24.95 0.4 32.7 79 -2.9 26.8
02:40 1016 30 845 24.95 0.4 32.8 79 -2.9 26.9
02:45 1016 30 845 24.95 0.5 32.8 79 -2.8 26.9
02:50 1016 30 845 24.95 0.4 32.6 79 -2.9 26.7
02:55 1016 30 845 24.95 0.5 32.8 75 -3.4 25.9
03:00 1016 30 845 24.95 0.7 33.3 73 -3.7 25.4
03:05 1016 30 845 24.95 0.9 33.6 66 -4.7 23.6
03:10 1016 30 845 24.95 1.1 34 67 -4.3 24.3
03:15 1016 30 845 24.95 1.2 34.1 67 -4.2 24.4
03:20 1016 30 845 24.95 1 33.8 70 -3.9 24.9
03:25 1016 30 845 24.95 0.8 33.4 69 -4.2 24.4
03:30 1016 30 845 24.95 0.7 33.3 68 -4.6 23.7
03:35 1016 30 845 24.95 0.7 33.3 66 -4.9 23.1
03:40 1016 30 845 24.95 0.8 33.5 64 -5.1 22.8
03:45 1016 30 845 24.95 0.8 33.5 66 -4.9 23.2
03:50 1016 30 845 24.95 0.7 33.3 64 -5.3 22.5
03:55 1016 30 845 24.95 0.7 33.3 64 -5.3 22.5
04:00 1016 30 845 24.95 0.7 33.2 65 -5.1 22.8
04:05 1016 30 845 24.95 0.6 33.1 65 -5.3 22.5
04:10 1016 30 845 24.95 0.6 33.1 66 -5.1 22.8
04:15 1016 30 845 24.95 0.5 32.8 69 -4.6 23.6
04:20 1016 30 845 24.95 0.2 32.3 69 -4.8 23.4
04:25 1016 30 845 24.95 -0 32 71 -4.7 23.5
04:30 1016 30 845 24.95 -0.1 31.8 70 -5 23.1
04:35 1016 30 845 24.95 0 32.1 69 -5 23.1
04:40 1016 30 845 24.95 0.2 32.3 65 -5.6 21.9
04:45 1016 30 845 24.95 0.4 32.8 66 -5.3 22.5
04:50 1016 30 845 24.95 0.3 32.6 65 -5.4 22.3
04:55 1016 30 845 24.95 0.3 32.6 66 -5.4 22.3
05:00 1016 30 845 24.95 0.3 32.6 67 -5.2 22.6
05:05 1016 30 845 24.95 0.3 32.6 65 -5.5 22.2
05:10 1016 30 845 24.95 0.5 32.9 65 -5.2 22.6
05:15 1016 30 845 24.95 0.5 33 66 -5.1 22.8
05:20 1016 30 845 24.95 0.5 32.9 65 -5.4 22.4
05:25 1016 30 845 24.95 0.6 33 65 -5.3 22.4
05:30 1016 30 845 24.95 0.7 33.3 62 -5.7 21.8
05:35 1016 30 845 24.95 0.9 33.6 60 -5.9 21.3
05:40 1016 30 845 24.95 1 33.8 60 -5.9 21.4
05:45 1016 30 845 24.95 1 33.9 61 -5.7 21.7
05:50 1016 30 845 24.95 1.1 33.9 61 -5.6 21.9
05:55 1016 30 845 24.95 1 33.8 63 -5.1 22.7
06:00 1016 30 845 24.95 0.9 33.7 64 -5.2 22.7
06:05 1016 30 845 24.95 1 33.8 63 -5.3 22.5
06:10 1016 30 846 24.98 1.1 34 63 -5.2 22.7
06:15 1016 30 846 24.98 1.1 34 62 -5.3 22.5
06:20 1016 30 846 24.98 1.1 34 61 -5.5 22
06:25 1016 30 846 24.98 1.3 34.3 59 -5.8 21.6
06:30 1016 30 846 24.98 1.4 34.6 58 -5.8 21.5
06:35 1017 30.03 846 24.98 1.6 34.9 59 -5.5 22.2
06:40 1017 30.03 846 24.98 1.7 35.1 63 -4.5 23.9
06:45 1017 30.03 846 24.98 1.7 35 64 -4.4 24.2
06:50 1017 30.03 846 24.98 1.6 34.8 62 -5 23
06:55 1017 30.03 846 24.98 1.7 35.1 61 -5.1 22.9
07:00 1017 30.03 846 24.98 1.7 35.1 59 -5.4 22.3
07:05 1017 30.03 846 24.98 1.7 35.1 59 -5.4 22.3
07:10 1016 30 846 24.98 1.9 35.4 58 -5.5 22.1
07:15 1017 30.03 846 24.98 1.9 35.5 57 -5.7 21.8
07:20 1017 30.03 846 24.98 2.2 35.9 54 -6.3 20.7
07:25 1017 30.03 846 24.98 2.6 36.6 55 -5.6 22
07:30 1017 30.03 846 24.98 2.8 37 54 -5.7 21.7
07:35 1017 30.03 846 24.98 2.8 37 52 -6 21.1
07:40 1017 30.03 846 24.98 2.8 37.1 52 -6 21.1
07:45 1017 30.03 846 24.98 3 37.3 54 -5.5 22.2
07:50 1017 30.03 846 24.98 3.3 38 52 -5.7 21.8
07:55 1017 30.03 846 24.98 3.7 38.7 46 -6.9 19.6
08:00 1017 30.03 846 24.98 3.9 39 45 -7 19.4
08:05 1017 30.03 846 24.98 4 39.2 46 -6.6 20.2
08:10 1017 30.03 846 24.98 4.4 39.8 42 -7.6 18.4
08:15 1017 30.03 846 24.98 4.7 40.5 43 -6.9 19.5
08:20 1017 30.03 846 24.98 4.6 40.3 43 -6.8 19.7
08:25 1017 30.03 846 24.98 5 41.1 38 -8.3 17.1
08:30 1017 30.03 846 24.98 5.4 41.7 36 -8.5 16.7
08:35 1017 30.03 846 24.98 4.9 40.8 38 -8.3 17
08:40 1017 30.03 846 24.98 5.2 41.4 36 -8.6 16.5
08:45 1017 30.03 846 24.98 5.2 41.4 35 -9.1 15.7
08:50 1017 30.03 846 24.98 5.1 41.2 34 -9.5 14.9
08:55 1017 30.03 846 24.98 5.4 41.7 33 -9.6 14.6
09:00 1017 30.03 846 24.98 5.4 41.7 33 -9.5 14.9
09:05 1017 30.03 846 24.98 5.1 41.2 36 -8.9 16
09:10 1017 30.03 846 24.98 4.8 40.7 36 -9.1 15.6
09:15 1017 30.03 846 24.98 4.6 40.3 35 -9.5 14.9
09:20 1017 30.03 846 24.98 4.8 40.6 35 -9.5 15
09:25 1017 30.03 846 24.98 6.1 42.9 31 -9.9 14.2
09:30 1017 30.03 846 24.98 7.1 44.7 29 -10 14
09:35 1017 30.03 846 24.98 7.3 45.1 30 -9.3 15.3
09:40 1017 30.03 846 24.98 6.6 43.8 32 -9.1 15.5
09:45 1017 30.03 846 24.98 6.3 43.3 31 -9.7 14.5
09:50 1017 30.03 846 24.98 5.6 42.1 40 -7 19.4
09:55 1017 30.03 846 24.98 4.7 40.5 45 -6.3 20.7
10:00 1017 30.03 846 24.98 3.9 39 51 -5.2 22.6
10:05 1017 30.03 846 24.98 3.7 38.6 49 -6.1 21
10:10 1017 30.03 846 24.98 3.9 39 45 -7.1 19.3
10:15 1017 30.03 846 24.98 4.4 39.9 41 -7.8 18
10:20 1017 30.03 846 24.98 5.9 42.6 35 -8.3 17
10:25 1017 30.03 846 24.98 6.1 42.9 36 -7.7 18.1
10:30 1017 30.03 846 24.98 5.9 42.7 36 -7.9 17.8
10:35 1017 30.03 846 24.98 6.4 43.6 36 -7.7 18.2
10:40 1017 30.03 846 24.98 6.3 43.3 35 -8.1 17.5
10:45 1017 30.03 846 24.98 5.9 42.6 39 -7.1 19.1
10:50 1017 30.03 846 24.98 4.6 40.3 50 -5 23
10:55 1017 30.03 846 24.98 4 39.2 49 -5.6 21.9
11:00 1017 30.03 846 24.98 4.3 39.7 49 -5.4 22.2
11:05 1017 30.03 846 24.98 5.2 41.3 45 -5.7 21.8
11:10 1017 30.03 846 24.98 5.1 41.1 48 -4.9 23.1
11:15 1017 30.03 846 24.98 4.4 39.9 47 -5.8 21.5
11:20 1017 30.03 846 24.98 4.6 40.2 43 -7 19.3
11:25 1017 30.03 846 24.98 5.2 41.4 42 -6.6 20.1
11:30 1017 30.03 846 24.98 5.6 42.1 40 -7 19.5
11:35 1017 30.03 846 24.98 6.3 43.4 35 -7.9 17.7
11:40 1017 30.03 846 24.98 6.1 42.9 40 -6.4 20.5
11:45 1017 30.03 846 24.98 5.8 42.4 46 -5 23
11:50 1017 30.03 846 24.98 4.9 40.8 47 -5.4 22.3
11:55 1017 30.03 846 24.98 4.2 39.6 50 -5.4 22.3
12:00 1017 30.03 846 24.98 4.2 39.5 49 -5.7 21.7
12:05 1017 30.03 846 24.98 4.2 39.6 47 -6.1 20.9
12:10 1017 30.03 846 24.98 4.5 40 46 -6.1 21
12:15 1017 30.03 846 24.98 4.4 39.9 53 -4.4 24.1
12:20 1017 30.03 846 24.98 4.4 39.9 55 -3.9 25
12:25 1017 30.03 846 24.98 4.8 40.6 57 -2.9 26.8
12:30 1017 30.03 846 24.98 5 41 52 -4 24.8
12:35 1017 30.03 846 24.98 4.9 40.8 51 -4.4 24.1
12:40 1017 30.03 846 24.98 5.6 42.1 42 -6.4 20.5
12:45 1017 30.03 846 24.98 6 42.8 42 -6.1 21.1
12:50 1017 30.03 846 24.98 6.1 42.9 41 -6.3 20.7
12:55 1017 30.03 846 24.98 6.2 43.1 39 -6.8 19.8
13:00 1017 30.03 846 24.98 6.2 43.1 41 -6.2 20.8
13:05 1017 30.03 846 24.98 5.9 42.5 38 -7.5 18.6
13:10 1017 30.03 846 24.98 6.3 43.3 32 -9.2 15.4
13:15 1017 30.03 846 24.98 7.3 45.2 33 -7.9 17.8
13:20 1017 30.03 846 24.98 7.7 45.9 38 -5.9 21.4
13:25 1017 30.03 846 24.98 7 44.7 28 -10.1 13.8
13:30 1017 30.03 846 24.98 7.9 46.3 27 -9.8 14.3
13:35 1017 30.03 846 24.98 8.1 46.5 28 -9.6 14.8
13:40 1017 30.03 846 24.98 8 46.4 28 -9.6 14.7
13:45 1017 30.03 846 24.98 8.2 46.8 26 -9.9 14.1
13:50 1016 30 846 24.98 8 46.4 27 -9.9 14.1
13:55 1016 30 846 24.98 8.5 47.4 26 -10.1 13.7
14:00 1016 30 846 24.98 8.4 47.2 26 -9.8 14.3
14:05 1016 30 845 24.95 9.4 49 25 -9.6 14.6
14:10 1016 30 845 24.95 9.1 48.4 26 -9.5 14.8
14:15 1016 30 845 24.95 9 48.2 25 -10.1 13.8
14:20 1016 30 845 24.95 8.9 48 25 -9.9 14.1
14:25 1016 30 845 24.95 8.7 47.6 25 -10.2 13.6
14:30 1016 30 845 24.95 7.8 46 27 -10.2 13.7
14:35 1016 30 845 24.95 7.5 45.5 27 -10.2 13.7
14:40 1016 30 845 24.95 8.1 46.6 28 -9.5 14.9
14:45 1016 30 845 24.95 8.6 47.5 25 -10.1 13.8
14:50 1016 30 845 24.95 8.5 47.2 29 -8.7 16.4
14:55 1016 30 845 24.95 8.3 46.9 26 -10.1 13.9
15:00 1016 30 845 24.95 8.2 46.7 32 -7.7 18.1
15:05 1016 30 845 24.95 7 44.6 32 -8.5 16.7
15:10 1016 30 845 24.95 6.6 43.8 34 -8.2 17.2
15:15 1016 30 845 24.95 6.8 44.3 33 -8.2 17.2
15:20 1016 30 845 24.95 6.8 44.3 33 -8.5 16.7
15:25 1016 30 845 24.95 6.8 44.3 33 -8.3 17.1
15:30 1016 30 845 24.95 7.6 45.7 32 -7.9 17.8
15:35 1016 30 845 24.95 7.1 44.8 31 -8.9 15.9
15:40 1016 30 845 24.95 7.2 45 30 -9.2 15.4
15:45 1016 30 845 24.95 7.8 46.1 28 -9.6 14.7
15:50 1016 30 845 24.95 7.9 46.2 30 -8.6 16.6
15:55 1016 30 845 24.95 7.7 45.9 30 -8.8 16.1
16:00 1016 30 845 24.95 7.8 46.1 30 -8.6 16.5
16:05 1016 30 845 24.95 8 46.4 29 -9.1 15.6
16:10 1016 30 845 24.95 8 46.3 29 -9 15.7
16:15 1016 30 845 24.95 8 46.3 28 -9.4 15
16:20 1016 30 845 24.95 7.9 46.3 30 -8.8 16.2
16:25 1016 30 845 24.95 8.1 46.7 28 -9.3 15.3
16:30 1016 30 845 24.95 8.2 46.8 28 -9.4 15.1
16:35 1016 30 845 24.95 8.4 47 29 -8.8 16.1
16:40 1016 30 845 24.95 8.4 47.2 27 -9.4 15.1
16:45 1016 30 845 24.95 8.8 47.8 28 -9 15.8
16:50 1016 30 845 24.95 8.7 47.7 27 -9.3 15.3
16:55 1016 30 845 24.95 9 48.1 27 -9.2 15.4
17:00 1016 30 845 24.95 9 48.1 27 -9 15.8
17:05 1016 30 845 24.95 8.4 47.1 28 -9 15.7
17:10 1016 30 845 24.95 8.2 46.7 28 -9.3 15.2
17:15 1016 30 845 24.95 8.3 47 28 -9.2 15.4
17:20 1016 30 845 24.95 8.4 47.1 27 -9.5 15
17:25 1016 30 845 24.95 8.5 47.2 27 -9.3 15.3
17:30 1016 30 845 24.95 8.5 47.2 27 -9.3 15.2
17:35 1016 30 845 24.95 8.3 46.9 28 -9.1 15.6
17:40 1016 30 845 24.95 8.2 46.8 28 -9.2 15.4
17:45 1016 30 845 24.95 8.2 46.7 29 -8.8 16.2
17:50 1016 30 845 24.95 7.9 46.1 30 -8.7 16.3
17:55 1016 30 845 24.95 7.8 46 30 -8.6 16.4
18:00 1016 30 845 24.95 7.7 45.9 31 -8.5 16.7
18:05 1016 30 845 24.95 7.4 45.3 32 -8.4 16.9
18:10 1016 30 845 24.95 7.3 45.2 31 -8.7 16.4
18:15 1016 30 845 24.95 7.3 45.1 30 -9 15.8
18:20 1016 30 845 24.95 7.4 45.4 30 -9 15.9
18:25 1016 30 845 24.95 7.2 44.9 32 -8.5 16.7
18:30 1016 30 845 24.95 7 44.5 32 -8.5 16.7
18:35 1016 30 845 24.95 6.9 44.3 33 -8.3 17
18:40 1016 30 845 24.95 6.6 44 33 -8.6 16.5
18:45 1016 30 845 24.95 6.6 44 33 -8.5 16.8
18:50 1016 30 845 24.95 6.6 43.8 33 -8.6 16.6
18:55 1016 30 845 24.95 6.5 43.7 34 -8.3 17
19:00 1016 30 846 24.98 6.6 43.9 34 -8 17.5
19:05 1016 30 846 24.98 6.7 44 39 -6.2 20.9
19:10 1016 30 846 24.98 6.3 43.4 44 -5.2 22.7
19:15 1016 30 846 24.98 6.1 43 47 -4.4 24
19:20 1016 30 846 24.98 5.9 42.5 49 -4 24.9
19:25 1016 30 846 24.98 5.7 42.3 48 -4.4 24.1
19:30 1017 30.03 846 24.98 5.7 42.3 47 -4.6 23.7
19:35 1017 30.03 846 24.98 5.7 42.2 48 -4.4 24
19:40 1017 30.03 846 24.98 5.5 41.8 51 -4 24.9
19:45 1017 30.03 846 24.98 5.2 41.3 53 -3.8 25.2
19:50 1017 30.03 846 24.98 5 41 53 -3.9 24.9
19:55 1017 30.03 846 24.98 5 41 55 -3.4 25.9
20:00 1017 30.03 846 24.98 4.9 40.8 56 -3.1 26.3
20:05 1017 30.03 846 24.98 4.8 40.7 56 -3.3 26.1
20:10 1017 30.03 846 24.98 4.7 40.5 56 -3.4 25.9
20:15 1017 30.03 846 24.98 4.9 40.8 48 -5.2 22.7
20:20 1017 30.03 846 24.98 4.9 40.9 50 -4.5 23.9
20:25 1017 30.03 846 24.98 4.9 40.8 50 -4.5 23.9
20:30 1017 30.03 846 24.98 4.9 40.8 52 -4.2 24.5
20:35 1017 30.03 846 24.98 4.7 40.5 56 -3.3 26.1
20:40 1017 30.03 846 24.98 4.6 40.2 56 -3.5 25.7
20:45 1017 30.03 846 24.98 4.5 40 55 -3.7 25.3
20:50 1017 30.03 846 24.98 4.1 39.4 57 -3.5 25.7
20:55 1017 30.03 846 24.98 4 39.2 56 -3.9 25
21:00 1017 30.03 846 24.98 4.1 39.4 56 -3.8 25.2
21:05 1017 30.03 846 24.98 4.1 39.3 57 -3.7 25.3
21:10 1017 30.03 846 24.98 4.1 39.3 59 -3.1 26.4
21:15 1017 30.03 846 24.98 3.9 39 62 -2.8 27
21:20 1017 30.03 846 24.98 3.8 38.8 63 -2.7 27.2
21:25 1017 30.03 846 24.98 3.6 38.6 64 -2.5 27.5
21:30 1017 30.03 846 24.98 3.5 38.4 65 -2.5 27.6
21:35 1017 30.03 846 24.98 3.5 38.3 66 -2.3 27.8
21:40 1017 30.03 846 24.98 3.4 38.2 66 -2.3 27.9
21:45 1017 30.03 846 24.98 3.4 38.1 67 -2.2 28.1
21:50 1017 30.03 846 24.98 3.4 38 67 -2.1 28.1
21:55 1017 30.03 846 24.98 3.3 37.9 68 -2.1 28.2
22:00 1017 30.03 846 24.98 3.3 37.9 68 -2.1 28.2
22:05 1017 30.03 846 24.98 3.2 37.8 69 -2 28.4
22:10 1017 30.03 846 24.98 3.2 37.7 69 -2 28.5
22:15 1017 30.03 846 24.98 3.1 37.6 70 -1.9 28.5
22:20 1017 30.03 846 24.98 3 37.5 71 -1.8 28.8
22:25 1017 30.03 846 24.98 2.9 37.3 72 -1.7 29
22:30 1017 30.03 846 24.98 2.8 37.1 72 -1.7 28.9
22:35 1017 30.03 846 24.98 2.7 36.9 73 -1.7 29
22:40 1017 30.03 846 24.98 2.7 36.8 72 -1.8 28.7
22:45 1017 30.03 846 24.98 2.7 36.9 71 -1.9 28.5
22:50 1017 30.03 846 24.98 2.7 36.9 72 -1.9 28.6
22:55 1017 30.03 846 24.98 2.6 36.7 72 -1.9 28.5
23:00 1017 30.03 846 24.98 2.6 36.7 72 -2 28.4
23:05 1017 30.03 846 24.98 2.6 36.7 72 -2 28.5
23:10 1017 30.03 846 24.98 2.6 36.7 72 -1.9 28.5
23:15 1017 30.03 846 24.98 2.5 36.5 73 -1.9 28.6
23:20 1017 30.03 846 24.98 2.5 36.4 73 -1.8 28.8
23:25 1017 30.03 846 24.98 2.4 36.4 73 -1.9 28.6
23:30 1017 30.03 846 24.98 2.5 36.4 73 -1.9 28.5
23:35 1017 30.03 846 24.98 2.5 36.5 72 -2 28.4
23:40 1017 30.03 846 24.98 2.5 36.5 72 -2.1 28.2
23:45 1017 30.03 846 24.98 2.5 36.6 72 -2.1 28.3
23:50 1017 30.03 846 24.98 2.5 36.4 72 -2 28.4
23:55 1017 30.03 846 24.98 2.4 36.4 73 -2 28.4
24:00 1017 30.03 846 24.98 2.4 36.3 73 -2 28.4